Morgan Ray — WDF6085 — position and weather

sailwx.info

Track history (hours):
 
Tides and Currents Weather Stations Pressure Air Temp Water Temp Dewpoint Dewpoint Depression Visibility Wind Speed Wind Dir Waves Ship Positions

Morgan Ray

Owner: Daigle Towing Service LLC., Belle Chasse, LA. More information available from US FCC via Universal Licensing System and Coast Guard Vessel Documentation Center.

Last reported at 2017-Aug-20 10:21 UTC. Time now 2017-Aug-22 20:27 UTC.
Position N 30°01' W 090°43'.

Length 20 m; draft 2 m.

Type: Tug. MMSI: 367470470.

Date/timePositionNaut miles runAvg speedWind from/ knotsBaromVisibWave heightAir tempDewpointWater temp
2017-Aug-20 10:21N 30°01' W 090°43'18 4.0
2017-Aug-20 05:58N 29°57' W 090°23'25 1.3
2017-Aug-19 10:31N 29°34' W 090°34'0 5.5
2017-Aug-19 10:31N 29°34' W 090°34'3 4.4
2017-Aug-19 09:56N 29°35' W 090°36'2 4.5
2017-Aug-19 09:30N 29°35' W 090°39'2 4.4
2017-Aug-19 09:00N 29°36' W 090°41'2 3.0
2017-Aug-19 08:30N 29°36' W 090°43'2 3.6
2017-Aug-19 08:00N 29°35' W 090°43'1 2.9
2017-Aug-19 07:30N 29°34' W 090°44'2 3.4
2017-Aug-19 07:00N 29°32' W 090°46'3 4.9
2017-Aug-19 06:30N 29°32' W 090°48'9 4.9
2017-Aug-19 04:42N 29°35' W 090°58'57 4.3
2017-Aug-18 15:28N 29°49' W 092°02'3 5.3
2017-Aug-18 15:00N 29°48' W 092°05'3 5.6
2017-Aug-18 14:30N 29°47' W 092°08'4 4.3
2017-Aug-18 13:30N 29°47' W 092°13'2 4.5
2017-Aug-18 13:00N 29°48' W 092°15'3 5.0
2017-Aug-18 12:22N 29°50' W 092°18'49 3.6
2017-Aug-17 22:49N 30°00' W 093°14'2 4.6
2017-Aug-17 22:29N 30°02' W 093°14'2 4.5
2017-Aug-17 22:00N 30°03' W 093°16'3 5.0
2017-Aug-17 21:30N 30°05' W 093°18'1 1.6
2017-Aug-17 21:00N 30°06' W 093°18'0 0.0
2017-Aug-17 20:30N 30°06' W 093°18'1 1.4
2017-Aug-17 20:00N 30°06' W 093°19'2 3.7
2017-Aug-17 19:30N 30°08' W 093°20'3 5.0
2017-Aug-17 19:00N 30°10' W 093°19'3 5.7
2017-Aug-17 18:30N 30°12' W 093°17'2 4.7
2017-Aug-17 18:00N 30°13' W 093°14'1 2.6
2017-Aug-17 17:29N 30°15' W 093°15'0 0.0
2017-Aug-17 16:34N 30°15' W 093°15'0 0.0
2017-Aug-17 00:14N 30°15' W 093°15'0 0.0
2017-Aug-16 22:11N 30°15' W 093°15'0 0.0
2017-Aug-16 22:00N 30°15' W 093°15'0 0.0
2017-Aug-16 19:55N 30°15' W 093°15'0 0.0
2017-Aug-16 18:31N 30°15' W 093°15'0 0.0
2017-Aug-16 18:15N 30°15' W 093°15'0 0.0
2017-Aug-16 17:59N 30°15' W 093°15'0 0.0
2017-Aug-16 16:41N 30°15' W 093°15'0 0.0
2017-Aug-16 16:22N 30°15' W 093°15'0 0.0
2017-Aug-16 15:48N 30°15' W 093°15'0 0.2
2017-Aug-16 15:30N 30°15' W 093°15'0 0.0
2017-Aug-15 13:59N 30°15' W 093°15'1 1.4
2017-Aug-15 13:28N 30°14' W 093°15'0 0.0
2017-Aug-14 21:28N 30°14' W 093°15'1 1.6
2017-Aug-14 20:58N 30°14' W 093°15'1 2.1
2017-Aug-14 20:28N 30°13' W 093°16'1 3.1
2017-Aug-14 20:00N 30°12' W 093°17'2 3.6
2017-Aug-14 19:30N 30°11' W 093°19'2 3.2
2017-Aug-14 19:00N 30°10' W 093°19'2 3.1
2017-Aug-14 18:30N 30°08' W 093°20'2 3.3
2017-Aug-14 18:00N 30°06' W 093°20'1 1.8
2017-Aug-14 17:30N 30°06' W 093°19'1 2.5
2017-Aug-14 17:00N 30°05' W 093°18'1 2.0
2017-Aug-14 16:30N 30°05' W 093°17'2 4.8
2017-Aug-14 16:00N 30°03' W 093°16'2 4.6
2017-Aug-14 15:30N 30°01' W 093°14'2 4.4
2017-Aug-14 15:00N 29°59' W 093°12'3 5.1
2017-Aug-14 14:30N 29°57' W 093°10'45 4.2
2017-Aug-14 03:45N 29°50' W 092°19'1 4.5
2017-Aug-14 03:30N 29°50' W 092°18'3 4.4
2017-Aug-14 02:55N 29°48' W 092°16'2 4.7
2017-Aug-14 02:30N 29°48' W 092°14'2 3.4
2017-Aug-14 02:00N 29°47' W 092°12'2 4.3
2017-Aug-14 01:30N 29°47' W 092°09'2 4.8
2017-Aug-14 01:00N 29°48' W 092°07'2 4.9
2017-Aug-14 00:30N 29°48' W 092°04'2 4.7
2017-Aug-14 00:00N 29°49' W 092°02'64 4.3
2017-Aug-13 09:13N 29°32' W 090°50'1 5.0
2017-Aug-13 08:59N 29°32' W 090°49'2 4.8
2017-Aug-13 08:30N 29°32' W 090°46'2 4.4
2017-Aug-13 08:00N 29°34' W 090°45'2 3.2
2017-Aug-13 07:30N 29°35' W 090°43'2 3.7
2017-Aug-13 07:00N 29°36' W 090°43'2 4.1
2017-Aug-13 06:30N 29°36' W 090°40'1 2.2
2017-Aug-13 06:00N 29°36' W 090°39'2 4.7
2017-Aug-13 05:30N 29°35' W 090°37'3 3.9
2017-Aug-13 04:44N 29°34' W 090°33'1 4.4
2017-Aug-13 04:30N 29°34' W 090°32'2 4.7
2017-Aug-13 04:00N 29°34' W 090°29'2 4.7
2017-Aug-13 03:28N 29°33' W 090°27'2 4.2
2017-Aug-13 02:53N 29°33' W 090°24'4 3.3
2017-Aug-13 01:43N 29°36' W 090°22'  
Track history (hours):
 
Tides and Currents Weather Stations Pressure Air Temp Water Temp Dewpoint Dewpoint Depression Visibility Wind Speed Wind Dir Waves Ship Positions

Morgan Ray

Owner: Daigle Towing Service LLC., Belle Chasse, LA. More information available from US FCC via Universal Licensing System and Coast Guard Vessel Documentation Center.

Last reported at 2017-Aug-20 10:21 UTC. Time now 2017-Aug-22 20:27 UTC.
Position N 30°01' W 090°43'.

Length 20 m; draft 2 m.

Type: Tug. MMSI: 367470470.

Date/timePositionNaut miles runAvg speedWind from/ knotsBaromVisibWave heightAir tempDewpointWater temp
2017-Aug-20 10:21N 30°01' W 090°43'18 4.0
2017-Aug-20 05:58N 29°57' W 090°23'25 1.3
2017-Aug-19 10:31N 29°34' W 090°34'0 5.5
2017-Aug-19 10:31N 29°34' W 090°34'3 4.4
2017-Aug-19 09:56N 29°35' W 090°36'2 4.5
2017-Aug-19 09:30N 29°35' W 090°39'2 4.4
2017-Aug-19 09:00N 29°36' W 090°41'2 3.0
2017-Aug-19 08:30N 29°36' W 090°43'2 3.6
2017-Aug-19 08:00N 29°35' W 090°43'1 2.9
2017-Aug-19 07:30N 29°34' W 090°44'2 3.4
2017-Aug-19 07:00N 29°32' W 090°46'3 4.9
2017-Aug-19 06:30N 29°32' W 090°48'9 4.9
2017-Aug-19 04:42N 29°35' W 090°58'57 4.3
2017-Aug-18 15:28N 29°49' W 092°02'3 5.3
2017-Aug-18 15:00N 29°48' W 092°05'3 5.6
2017-Aug-18 14:30N 29°47' W 092°08'4 4.3
2017-Aug-18 13:30N 29°47' W 092°13'2 4.5
2017-Aug-18 13:00N 29°48' W 092°15'3 5.0
2017-Aug-18 12:22N 29°50' W 092°18'49 3.6
2017-Aug-17 22:49N 30°00' W 093°14'2 4.6
2017-Aug-17 22:29N 30°02' W 093°14'2 4.5
2017-Aug-17 22:00N 30°03' W 093°16'3 5.0
2017-Aug-17 21:30N 30°05' W 093°18'1 1.6
2017-Aug-17 21:00N 30°06' W 093°18'0 0.0
2017-Aug-17 20:30N 30°06' W 093°18'1 1.4
2017-Aug-17 20:00N 30°06' W 093°19'2 3.7
2017-Aug-17 19:30N 30°08' W 093°20'3 5.0
2017-Aug-17 19:00N 30°10' W 093°19'3 5.7
2017-Aug-17 18:30N 30°12' W 093°17'2 4.7
2017-Aug-17 18:00N 30°13' W 093°14'1 2.6
2017-Aug-17 17:29N 30°15' W 093°15'0 0.0
2017-Aug-17 16:34N 30°15' W 093°15'0 0.0
2017-Aug-17 00:14N 30°15' W 093°15'0 0.0
2017-Aug-16 22:11N 30°15' W 093°15'0 0.0
2017-Aug-16 22:00N 30°15' W 093°15'0 0.0
2017-Aug-16 19:55N 30°15' W 093°15'0 0.0
2017-Aug-16 18:31N 30°15' W 093°15'0 0.0
2017-Aug-16 18:15N 30°15' W 093°15'0 0.0
2017-Aug-16 17:59N 30°15' W 093°15'0 0.0
2017-Aug-16 16:41N 30°15' W 093°15'0 0.0
2017-Aug-16 16:22N 30°15' W 093°15'0 0.0
2017-Aug-16 15:48N 30°15' W 093°15'0 0.2
2017-Aug-16 15:30N 30°15' W 093°15'0 0.0
2017-Aug-15 13:59N 30°15' W 093°15'1 1.4
2017-Aug-15 13:28N 30°14' W 093°15'0 0.0
2017-Aug-14 21:28N 30°14' W 093°15'1 1.6
2017-Aug-14 20:58N 30°14' W 093°15'1 2.1
2017-Aug-14 20:28N 30°13' W 093°16'1 3.1
2017-Aug-14 20:00N 30°12' W 093°17'2 3.6
2017-Aug-14 19:30N 30°11' W 093°19'2 3.2
2017-Aug-14 19:00N 30°10' W 093°19'2 3.1
2017-Aug-14 18:30N 30°08' W 093°20'2 3.3
2017-Aug-14 18:00N 30°06' W 093°20'1 1.8
2017-Aug-14 17:30N 30°06' W 093°19'1 2.5
2017-Aug-14 17:00N 30°05' W 093°18'1 2.0
2017-Aug-14 16:30N 30°05' W 093°17'2 4.8
2017-Aug-14 16:00N 30°03' W 093°16'2 4.6
2017-Aug-14 15:30N 30°01' W 093°14'2 4.4
2017-Aug-14 15:00N 29°59' W 093°12'3 5.1
2017-Aug-14 14:30N 29°57' W 093°10'45 4.2
2017-Aug-14 03:45N 29°50' W 092°19'1 4.5
2017-Aug-14 03:30N 29°50' W 092°18'3 4.4
2017-Aug-14 02:55N 29°48' W 092°16'2 4.7
2017-Aug-14 02:30N 29°48' W 092°14'2 3.4
2017-Aug-14 02:00N 29°47' W 092°12'2 4.3
2017-Aug-14 01:30N 29°47' W 092°09'2 4.8
2017-Aug-14 01:00N 29°48' W 092°07'2 4.9
2017-Aug-14 00:30N 29°48' W 092°04'2 4.7
2017-Aug-14 00:00N 29°49' W 092°02'64 4.3
2017-Aug-13 09:13N 29°32' W 090°50'1 5.0
2017-Aug-13 08:59N 29°32' W 090°49'2 4.8
2017-Aug-13 08:30N 29°32' W 090°46'2 4.4
2017-Aug-13 08:00N 29°34' W 090°45'2 3.2
2017-Aug-13 07:30N 29°35' W 090°43'2 3.7
2017-Aug-13 07:00N 29°36' W 090°43'2 4.1
2017-Aug-13 06:30N 29°36' W 090°40'1 2.2
2017-Aug-13 06:00N 29°36' W 090°39'2 4.7
2017-Aug-13 05:30N 29°35' W 090°37'3 3.9
2017-Aug-13 04:44N 29°34' W 090°33'1 4.4
2017-Aug-13 04:30N 29°34' W 090°32'2 4.7
2017-Aug-13 04:00N 29°34' W 090°29'2 4.7
2017-Aug-13 03:28N 29°33' W 090°27'2 4.2
2017-Aug-13 02:53N 29°33' W 090°24'4 3.3
2017-Aug-13 01:43N 29°36' W 090°22'  

Dump ship's entire track history